sensor_id;sensor_type;location;lat;lon;timestamp;temperature;humidity
82836;DHT22;72587;50.746;8.246;2024-03-23T00:55:02;6.10;99.90
82836;DHT22;72587;50.746;8.246;2024-03-23T00:57:27;6.10;99.90
82836;DHT22;72587;50.746;8.246;2024-03-23T00:59:53;6.10;99.90
82836;DHT22;72587;50.746;8.246;2024-03-23T01:02:18;6.20;99.90
82836;DHT22;72587;50.746;8.246;2024-03-23T01:04:44;6.20;99.90
82836;DHT22;72587;50.746;8.246;2024-03-23T01:07:09;6.20;99.90
82836;DHT22;72587;50.746;8.246;2024-03-23T01:09:35;6.20;99.90
82836;DHT22;72587;50.746;8.246;2024-03-23T01:12:00;6.30;99.90
82836;DHT22;72587;50.746;8.246;2024-03-23T01:14:27;6.30;99.90
82836;DHT22;72587;50.746;8.246;2024-03-23T01:16:52;6.40;99.90
82836;DHT22;72587;50.746;8.246;2024-03-23T01:19:17;6.40;99.90
82836;DHT22;72587;50.746;8.246;2024-03-23T01:21:43;6.40;99.90
82836;DHT22;72587;50.746;8.246;2024-03-23T01:24:08;6.50;99.90
82836;DHT22;72587;50.746;8.246;2024-03-23T01:26:36;6.60;99.90
82836;DHT22;72587;50.746;8.246;2024-03-23T01:29:02;6.60;99.90
82836;DHT22;72587;50.746;8.246;2024-03-23T01:31:27;6.70;99.90
82836;DHT22;72587;50.746;8.246;2024-03-23T01:33:53;6.70;99.90
82836;DHT22;72587;50.746;8.246;2024-03-23T01:36:18;6.70;99.90
82836;DHT22;72587;50.746;8.246;2024-03-23T01:38:45;6.70;99.90
82836;DHT22;72587;50.746;8.246;2024-03-23T01:41:10;6.70;99.90
82836;DHT22;72587;50.746;8.246;2024-03-23T01:43:35;6.80;99.90
82836;DHT22;72587;50.746;8.246;2024-03-23T01:46:01;6.80;99.90
82836;DHT22;72587;50.746;8.246;2024-03-23T01:48:26;6.90;99.90
82836;DHT22;72587;50.746;8.246;2024-03-23T01:50:52;6.90;99.90
82836;DHT22;72587;50.746;8.246;2024-03-23T01:53:18;6.90;99.90
82836;DHT22;72587;50.746;8.246;2024-03-23T01:55:47;6.90;99.90
82836;DHT22;72587;50.746;8.246;2024-03-23T01:58:12;6.80;99.90
82836;DHT22;72587;50.746;8.246;2024-03-23T02:00:38;6.80;99.90
82836;DHT22;72587;50.746;8.246;2024-03-23T02:03:21;6.90;99.90
82836;DHT22;72587;50.746;8.246;2024-03-23T02:05:46;6.90;99.90
82836;DHT22;72587;50.746;8.246;2024-03-23T02:08:12;6.90;99.90
82836;DHT22;72587;50.746;8.246;2024-03-23T02:10:37;6.90;99.90
82836;DHT22;72587;50.746;8.246;2024-03-23T02:13:03;7.00;99.90
82836;DHT22;72587;50.746;8.246;2024-03-23T02:15:28;7.00;99.90
82836;DHT22;72587;50.746;8.246;2024-03-23T02:17:54;7.00;99.90
82836;DHT22;72587;50.746;8.246;2024-03-23T02:20:19;7.00;99.90
82836;DHT22;72587;50.746;8.246;2024-03-23T02:22:45;6.90;99.90
82836;DHT22;72587;50.746;8.246;2024-03-23T02:25:10;6.90;99.90
82836;DHT22;72587;50.746;8.246;2024-03-23T02:27:36;6.90;99.90
82836;DHT22;72587;50.746;8.246;2024-03-23T02:30:04;6.90;99.90
82836;DHT22;72587;50.746;8.246;2024-03-23T02:32:30;6.90;99.90
82836;DHT22;72587;50.746;8.246;2024-03-23T02:34:55;6.90;99.90
82836;DHT22;72587;50.746;8.246;2024-03-23T02:37:21;7.00;99.90
82836;DHT22;72587;50.746;8.246;2024-03-23T02:39:46;7.00;99.90
82836;DHT22;72587;50.746;8.246;2024-03-23T02:42:11;7.00;99.90
82836;DHT22;72587;50.746;8.246;2024-03-23T02:44:37;7.00;99.90
82836;DHT22;72587;50.746;8.246;2024-03-23T02:47:02;7.00;99.90
82836;DHT22;72587;50.746;8.246;2024-03-23T02:49:28;6.90;99.90
82836;DHT22;72587;50.746;8.246;2024-03-23T02:51:53;6.90;99.90
82836;DHT22;72587;50.746;8.246;2024-03-23T02:54:19;6.80;99.90
82836;DHT22;72587;50.746;8.246;2024-03-23T02:56:44;6.80;99.90
82836;DHT22;72587;50.746;8.246;2024-03-23T02:59:10;6.80;99.90
82836;DHT22;72587;50.746;8.246;2024-03-23T03:01:35;6.80;99.90
82836;DHT22;72587;50.746;8.246;2024-03-23T03:04:01;6.70;99.90
82836;DHT22;72587;50.746;8.246;2024-03-23T03:06:26;6.70;99.90
82836;DHT22;72587;50.746;8.246;2024-03-23T03:08:52;6.60;99.90
82836;DHT22;72587;50.746;8.246;2024-03-23T03:11:17;6.60;99.90
82836;DHT22;72587;50.746;8.246;2024-03-23T03:13:43;6.60;99.90
82836;DHT22;72587;50.746;8.246;2024-03-23T03:16:12;6.50;99.90
82836;DHT22;72587;50.746;8.246;2024-03-23T03:18:38;6.50;99.90
82836;DHT22;72587;50.746;8.246;2024-03-23T03:21:04;6.50;99.90
82836;DHT22;72587;50.746;8.246;2024-03-23T03:23:31;6.50;99.90
82836;DHT22;72587;50.746;8.246;2024-03-23T03:25:56;6.50;99.90
82836;DHT22;72587;50.746;8.246;2024-03-23T03:28:22;6.40;99.90
82836;DHT22;72587;50.746;8.246;2024-03-23T03:30:47;6.50;99.90
82836;DHT22;72587;50.746;8.246;2024-03-23T03:33:13;6.40;99.90
82836;DHT22;72587;50.746;8.246;2024-03-23T03:35:38;6.40;99.90
82836;DHT22;72587;50.746;8.246;2024-03-23T03:38:04;6.30;99.90
82836;DHT22;72587;50.746;8.246;2024-03-23T03:40:29;6.30;99.90
82836;DHT22;72587;50.746;8.246;2024-03-23T03:42:55;6.20;99.90
82836;DHT22;72587;50.746;8.246;2024-03-23T03:45:21;6.20;99.90
82836;DHT22;72587;50.746;8.246;2024-03-23T03:47:46;6.20;99.90
82836;DHT22;72587;50.746;8.246;2024-03-23T03:50:12;6.20;99.90
82836;DHT22;72587;50.746;8.246;2024-03-23T03:52:37;6.20;99.90
82836;DHT22;72587;50.746;8.246;2024-03-23T03:55:03;6.10;99.90
82836;DHT22;72587;50.746;8.246;2024-03-23T03:57:28;6.10;99.90
82836;DHT22;72587;50.746;8.246;2024-03-23T03:59:54;6.10;99.90
82836;DHT22;72587;50.746;8.246;2024-03-23T04:02:19;6.10;99.90
82836;DHT22;72587;50.746;8.246;2024-03-23T04:04:45;6.10;99.90
82836;DHT22;72587;50.746;8.246;2024-03-23T04:07:10;6.10;99.90
82836;DHT22;72587;50.746;8.246;2024-03-23T04:09:36;6.00;99.90
82836;DHT22;72587;50.746;8.246;2024-03-23T04:12:01;6.00;99.90
82836;DHT22;72587;50.746;8.246;2024-03-23T04:14:27;6.00;99.90
82836;DHT22;72587;50.746;8.246;2024-03-23T04:16:52;5.90;99.90
82836;DHT22;72587;50.746;8.246;2024-03-23T04:19:17;5.90;99.90
82836;DHT22;72587;50.746;8.246;2024-03-23T04:21:43;5.80;99.90
82836;DHT22;72587;50.746;8.246;2024-03-23T04:24:08;5.80;99.90
82836;DHT22;72587;50.746;8.246;2024-03-23T04:26:40;5.80;99.90
82836;DHT22;72587;50.746;8.246;2024-03-23T04:29:06;5.70;99.90
82836;DHT22;72587;50.746;8.246;2024-03-23T04:31:31;5.70;99.90
82836;DHT22;72587;50.746;8.246;2024-03-23T04:33:59;5.70;99.90
82836;DHT22;72587;50.746;8.246;2024-03-23T04:36:25;5.70;99.90
82836;DHT22;72587;50.746;8.246;2024-03-23T04:38:50;5.60;99.90
82836;DHT22;72587;50.746;8.246;2024-03-23T04:41:17;5.60;99.90
82836;DHT22;72587;50.746;8.246;2024-03-23T04:43:43;5.60;99.90
82836;DHT22;72587;50.746;8.246;2024-03-23T04:46:09;5.50;99.90
82836;DHT22;72587;50.746;8.246;2024-03-23T04:48:34;5.40;99.90
82836;DHT22;72587;50.746;8.246;2024-03-23T04:51:00;5.30;99.90
82836;DHT22;72587;50.746;8.246;2024-03-23T04:53:25;5.30;99.90
82836;DHT22;72587;50.746;8.246;2024-03-23T04:55:56;5.30;99.90
82836;DHT22;72587;50.746;8.246;2024-03-23T04:58:22;5.30;99.90
82836;DHT22;72587;50.746;8.246;2024-03-23T05:00:52;5.20;99.90
82836;DHT22;72587;50.746;8.246;2024-03-23T05:03:18;5.20;99.90
82836;DHT22;72587;50.746;8.246;2024-03-23T05:05:44;5.10;99.90
82836;DHT22;72587;50.746;8.246;2024-03-23T05:08:10;5.10;99.90
82836;DHT22;72587;50.746;8.246;2024-03-23T05:10:35;5.00;99.90
82836;DHT22;72587;50.746;8.246;2024-03-23T05:13:01;4.90;99.90
82836;DHT22;72587;50.746;8.246;2024-03-23T05:15:26;4.90;99.90
82836;DHT22;72587;50.746;8.246;2024-03-23T05:17:52;4.80;99.90
82836;DHT22;72587;50.746;8.246;2024-03-23T05:20:19;4.70;99.90
82836;DHT22;72587;50.746;8.246;2024-03-23T05:22:44;4.60;99.90
82836;DHT22;72587;50.746;8.246;2024-03-23T05:25:10;4.60;99.90
82836;DHT22;72587;50.746;8.246;2024-03-23T05:27:36;4.50;99.90
82836;DHT22;72587;50.746;8.246;2024-03-23T05:30:02;4.50;99.90
82836;DHT22;72587;50.746;8.246;2024-03-23T05:32:29;4.50;99.90
82836;DHT22;72587;50.746;8.246;2024-03-23T05:34:54;4.50;99.90
82836;DHT22;72587;50.746;8.246;2024-03-23T05:37:23;4.50;99.90
82836;DHT22;72587;50.746;8.246;2024-03-23T05:39:49;4.40;99.90
82836;DHT22;72587;50.746;8.246;2024-03-23T05:42:17;4.40;99.90
82836;DHT22;72587;50.746;8.246;2024-03-23T05:44:46;4.40;99.90
82836;DHT22;72587;50.746;8.246;2024-03-23T05:47:11;4.40;99.90
82836;DHT22;72587;50.746;8.246;2024-03-23T05:49:41;4.40;99.90
82836;DHT22;72587;50.746;8.246;2024-03-23T05:52:07;4.40;99.90
82836;DHT22;72587;50.746;8.246;2024-03-23T05:54:33;4.40;99.90
82836;DHT22;72587;50.746;8.246;2024-03-23T05:56:59;4.40;99.90
82836;DHT22;72587;50.746;8.246;2024-03-23T05:59:24;4.30;99.90
82836;DHT22;72587;50.746;8.246;2024-03-23T06:01:50;4.40;99.90
82836;DHT22;72587;50.746;8.246;2024-03-23T06:04:15;4.30;99.90
82836;DHT22;72587;50.746;8.246;2024-03-23T06:06:41;4.30;99.90
82836;DHT22;72587;50.746;8.246;2024-03-23T06:09:06;4.30;99.90
82836;DHT22;72587;50.746;8.246;2024-03-23T06:11:32;4.30;99.90
82836;DHT22;72587;50.746;8.246;2024-03-23T06:13:57;4.30;99.90
82836;DHT22;72587;50.746;8.246;2024-03-23T06:16:22;4.40;99.90
82836;DHT22;72587;50.746;8.246;2024-03-23T06:18:52;4.40;99.90
82836;DHT22;72587;50.746;8.246;2024-03-23T06:21:18;4.40;99.90
82836;DHT22;72587;50.746;8.246;2024-03-23T06:23:44;4.40;99.90
82836;DHT22;72587;50.746;8.246;2024-03-23T06:26:19;4.60;99.90
82836;DHT22;72587;50.746;8.246;2024-03-23T06:28:45;4.60;99.90
82836;DHT22;72587;50.746;8.246;2024-03-23T06:31:11;4.60;99.90
82836;DHT22;72587;50.746;8.246;2024-03-23T06:33:36;4.70;99.90
82836;DHT22;72587;50.746;8.246;2024-03-23T06:36:02;4.70;99.90
82836;DHT22;72587;50.746;8.246;2024-03-23T06:38:28;4.80;99.90
82836;DHT22;72587;50.746;8.246;2024-03-23T06:40:54;4.80;99.90
82836;DHT22;72587;50.746;8.246;2024-03-23T06:43:19;4.80;99.90
82836;DHT22;72587;50.746;8.246;2024-03-23T06:45:44;4.80;99.90
82836;DHT22;72587;50.746;8.246;2024-03-23T06:48:17;4.80;99.90
82836;DHT22;72587;50.746;8.246;2024-03-23T06:50:42;4.90;99.90
82836;DHT22;72587;50.746;8.246;2024-03-23T06:53:08;4.90;99.90
82836;DHT22;72587;50.746;8.246;2024-03-23T06:55:33;5.00;99.90
82836;DHT22;72587;50.746;8.246;2024-03-23T06:57:59;5.00;99.90
82836;DHT22;72587;50.746;8.246;2024-03-23T07:00:24;4.90;99.90
82836;DHT22;72587;50.746;8.246;2024-03-23T07:02:50;4.90;99.90
82836;DHT22;72587;50.746;8.246;2024-03-23T07:05:15;4.90;99.90
82836;DHT22;72587;50.746;8.246;2024-03-23T07:07:41;4.90;99.90
82836;DHT22;72587;50.746;8.246;2024-03-23T07:10:06;5.10;99.90
82836;DHT22;72587;50.746;8.246;2024-03-23T07:12:32;5.10;99.90
82836;DHT22;72587;50.746;8.246;2024-03-23T07:15:00;5.20;99.90
82836;DHT22;72587;50.746;8.246;2024-03-23T07:17:26;5.30;99.90
82836;DHT22;72587;50.746;8.246;2024-03-23T07:19:51;5.40;99.90
82836;DHT22;72587;50.746;8.246;2024-03-23T07:22:17;5.60;99.90
82836;DHT22;72587;50.746;8.246;2024-03-23T07:24:43;5.70;99.90
82836;DHT22;72587;50.746;8.246;2024-03-23T07:27:09;5.70;99.90
82836;DHT22;72587;50.746;8.246;2024-03-23T07:29:35;5.60;99.90
82836;DHT22;72587;50.746;8.246;2024-03-23T07:32:01;5.60;99.90
82836;DHT22;72587;50.746;8.246;2024-03-23T07:34:26;5.50;99.90
82836;DHT22;72587;50.746;8.246;2024-03-23T07:36:52;5.40;99.90
82836;DHT22;72587;50.746;8.246;2024-03-23T07:39:17;5.40;99.90
82836;DHT22;72587;50.746;8.246;2024-03-23T07:41:45;5.30;99.90
82836;DHT22;72587;50.746;8.246;2024-03-23T07:44:11;5.30;99.90
82836;DHT22;72587;50.746;8.246;2024-03-23T07:46:36;5.40;99.90
82836;DHT22;72587;50.746;8.246;2024-03-23T07:49:04;5.40;99.90
82836;DHT22;72587;50.746;8.246;2024-03-23T07:51:29;5.40;99.90
82836;DHT22;72587;50.746;8.246;2024-03-23T07:53:55;5.40;99.90
82836;DHT22;72587;50.746;8.246;2024-03-23T07:56:20;5.50;99.90
82836;DHT22;72587;50.746;8.246;2024-03-23T07:58:47;5.40;99.90
82836;DHT22;72587;50.746;8.246;2024-03-23T08:01:13;5.50;99.90
82836;DHT22;72587;50.746;8.246;2024-03-23T08:03:45;5.40;99.90
82836;DHT22;72587;50.746;8.246;2024-03-23T08:06:14;5.60;99.90
82836;DHT22;72587;50.746;8.246;2024-03-23T08:08:41;5.60;99.90
82836;DHT22;72587;50.746;8.246;2024-03-23T08:11:07;5.70;99.90
82836;DHT22;72587;50.746;8.246;2024-03-23T08:13:33;5.70;99.90
82836;DHT22;72587;50.746;8.246;2024-03-23T08:15:59;5.60;99.90
82836;DHT22;72587;50.746;8.246;2024-03-23T08:18:25;5.70;99.90
82836;DHT22;72587;50.746;8.246;2024-03-23T08:20:57;5.70;99.90
82836;DHT22;72587;50.746;8.246;2024-03-23T08:23:23;5.80;99.90
82836;DHT22;72587;50.746;8.246;2024-03-23T08:25:49;5.80;99.90
82836;DHT22;72587;50.746;8.246;2024-03-23T08:28:14;6.10;99.90
82836;DHT22;72587;50.746;8.246;2024-03-23T08:30:40;6.30;99.90
82836;DHT22;72587;50.746;8.246;2024-03-23T08:33:05;6.50;99.90
82836;DHT22;72587;50.746;8.246;2024-03-23T08:35:31;6.60;99.90
82836;DHT22;72587;50.746;8.246;2024-03-23T08:37:56;7.00;99.90
82836;DHT22;72587;50.746;8.246;2024-03-23T08:40:22;7.50;99.90
82836;DHT22;72587;50.746;8.246;2024-03-23T08:42:47;8.10;99.90
82836;DHT22;72587;50.746;8.246;2024-03-23T08:45:13;8.50;99.90
82836;DHT22;72587;50.746;8.246;2024-03-23T08:47:38;9.00;99.90
82836;DHT22;72587;50.746;8.246;2024-03-23T08:50:04;8.90;99.90
82836;DHT22;72587;50.746;8.246;2024-03-23T08:52:29;8.40;99.90
82836;DHT22;72587;50.746;8.246;2024-03-23T08:54:55;8.30;99.90
82836;DHT22;72587;50.746;8.246;2024-03-23T08:57:22;8.40;99.90
82836;DHT22;72587;50.746;8.246;2024-03-23T08:59:47;8.30;99.90
82836;DHT22;72587;50.746;8.246;2024-03-23T09:02:13;8.10;99.90
82836;DHT22;72587;50.746;8.246;2024-03-23T09:04:38;7.90;99.90
82836;DHT22;72587;50.746;8.246;2024-03-23T09:07:04;7.80;99.90
82836;DHT22;72587;50.746;8.246;2024-03-23T09:09:30;8.00;99.90
82836;DHT22;72587;50.746;8.246;2024-03-23T09:11:55;8.20;99.90
82836;DHT22;72587;50.746;8.246;2024-03-23T09:14:21;8.50;99.90
82836;DHT22;72587;50.746;8.246;2024-03-23T09:16:49;8.60;99.90
82836;DHT22;72587;50.746;8.246;2024-03-23T09:19:15;8.60;99.90
82836;DHT22;72587;50.746;8.246;2024-03-23T09:21:40;8.90;99.90
82836;DHT22;72587;50.746;8.246;2024-03-23T09:24:06;9.50;99.90
82836;DHT22;72587;50.746;8.246;2024-03-23T09:26:31;10.00;99.90
82836;DHT22;72587;50.746;8.246;2024-03-23T09:28:57;10.00;99.90
82836;DHT22;72587;50.746;8.246;2024-03-23T09:31:22;10.30;99.90
82836;DHT22;72587;50.746;8.246;2024-03-23T09:33:48;9.90;99.90
82836;DHT22;72587;50.746;8.246;2024-03-23T09:36:13;9.30;99.90
82836;DHT22;72587;50.746;8.246;2024-03-23T09:38:39;8.70;99.90
82836;DHT22;72587;50.746;8.246;2024-03-23T09:41:08;8.90;99.90
82836;DHT22;72587;50.746;8.246;2024-03-23T09:43:34;9.50;99.90
82836;DHT22;72587;50.746;8.246;2024-03-23T09:46:00;10.20;99.90
82836;DHT22;72587;50.746;8.246;2024-03-23T09:48:26;10.90;99.90
82836;DHT22;72587;50.746;8.246;2024-03-23T09:50:52;10.90;99.90
82836;DHT22;72587;50.746;8.246;2024-03-23T09:53:19;10.40;99.90
82836;DHT22;72587;50.746;8.246;2024-03-23T09:55:45;9.80;99.90
82836;DHT22;72587;50.746;8.246;2024-03-23T09:58:17;9.40;99.90
82836;DHT22;72587;50.746;8.246;2024-03-23T10:00:43;9.10;99.90
82836;DHT22;72587;50.746;8.246;2024-03-23T10:03:08;9.10;99.90
82836;DHT22;72587;50.746;8.246;2024-03-23T10:05:36;9.50;99.90
82836;DHT22;72587;50.746;8.246;2024-03-23T10:10:39;11.60;99.90
82836;DHT22;72587;50.746;8.246;2024-03-23T10:13:04;11.10;99.90
82836;DHT22;72587;50.746;8.246;2024-03-23T10:15:30;10.50;99.90
82836;DHT22;72587;50.746;8.246;2024-03-23T10:17:58;9.80;99.90
82836;DHT22;72587;50.746;8.246;2024-03-23T10:20:30;9.30;99.90
82836;DHT22;72587;50.746;8.246;2024-03-23T10:22:55;9.30;99.90
82836;DHT22;72587;50.746;8.246;2024-03-23T10:25:24;9.10;99.90
82836;DHT22;72587;50.746;8.246;2024-03-23T10:27:59;9.20;99.90
82836;DHT22;72587;50.746;8.246;2024-03-23T10:30:26;9.30;99.90
82836;DHT22;72587;50.746;8.246;2024-03-23T10:33:11;9.20;99.90
82836;DHT22;72587;50.746;8.246;2024-03-23T10:35:37;9.30;99.90
82836;DHT22;72587;50.746;8.246;2024-03-23T10:38:06;9.30;99.90
82836;DHT22;72587;50.746;8.246;2024-03-23T10:40:35;9.40;99.90
82836;DHT22;72587;50.746;8.246;2024-03-23T10:43:01;9.90;99.90
82836;DHT22;72587;50.746;8.246;2024-03-23T10:45:28;9.90;99.90
82836;DHT22;72587;50.746;8.246;2024-03-23T10:47:53;9.80;99.90
82836;DHT22;72587;50.746;8.246;2024-03-23T10:50:19;9.60;99.90
82836;DHT22;72587;50.746;8.246;2024-03-23T10:52:46;8.50;99.90
82836;DHT22;72587;50.746;8.246;2024-03-23T10:55:11;7.60;99.90
82836;DHT22;72587;50.746;8.246;2024-03-23T10:57:40;7.10;99.90
82836;DHT22;72587;50.746;8.246;2024-03-23T11:00:06;6.80;99.90
82836;DHT22;72587;50.746;8.246;2024-03-23T11:02:33;6.80;99.90
82836;DHT22;72587;50.746;8.246;2024-03-23T11:04:58;7.20;99.90
82836;DHT22;72587;50.746;8.246;2024-03-23T11:09:55;7.80;99.90
82836;DHT22;72587;50.746;8.246;2024-03-23T11:17:24;8.50;99.90
82836;DHT22;72587;50.746;8.246;2024-03-23T11:19:53;8.50;99.90
82836;DHT22;72587;50.746;8.246;2024-03-23T11:25:02;8.40;99.90
82836;DHT22;72587;50.746;8.246;2024-03-23T11:27:28;8.40;99.90
82836;DHT22;72587;50.746;8.246;2024-03-23T11:29:53;8.40;99.90
82836;DHT22;72587;50.746;8.246;2024-03-23T11:32:19;8.40;99.90
82836;DHT22;72587;50.746;8.246;2024-03-23T11:34:44;8.40;99.90
82836;DHT22;72587;50.746;8.246;2024-03-23T11:37:10;8.30;99.90
82836;DHT22;72587;50.746;8.246;2024-03-23T11:39:35;8.30;99.90
82836;DHT22;72587;50.746;8.246;2024-03-23T11:42:00;8.10;99.90
82836;DHT22;72587;50.746;8.246;2024-03-23T11:44:26;8.00;99.90
82836;DHT22;72587;50.746;8.246;2024-03-23T11:46:52;7.90;99.90
82836;DHT22;72587;50.746;8.246;2024-03-23T11:49:27;7.90;99.90
82836;DHT22;72587;50.746;8.246;2024-03-23T11:51:54;8.00;99.90
82836;DHT22;72587;50.746;8.246;2024-03-23T11:54:20;8.10;99.90
82836;DHT22;72587;50.746;8.246;2024-03-23T11:59:30;8.70;99.90
82836;DHT22;72587;50.746;8.246;2024-03-23T12:01:56;8.70;99.90
82836;DHT22;72587;50.746;8.246;2024-03-23T12:04:25;8.40;99.90
82836;DHT22;72587;50.746;8.246;2024-03-23T12:06:51;8.00;99.90
82836;DHT22;72587;50.746;8.246;2024-03-23T12:09:16;7.80;99.90
82836;DHT22;72587;50.746;8.246;2024-03-23T12:11:42;7.80;99.90
82836;DHT22;72587;50.746;8.246;2024-03-23T12:14:07;7.80;99.90
82836;DHT22;72587;50.746;8.246;2024-03-23T12:16:33;7.90;99.90
82836;DHT22;72587;50.746;8.246;2024-03-23T12:18:58;7.90;99.90
82836;DHT22;72587;50.746;8.246;2024-03-23T12:21:30;8.00;99.90
82836;DHT22;72587;50.746;8.246;2024-03-23T12:23:56;8.50;99.90
82836;DHT22;72587;50.746;8.246;2024-03-23T12:26:21;9.10;99.90
82836;DHT22;72587;50.746;8.246;2024-03-23T12:28:48;9.40;99.90
82836;DHT22;72587;50.746;8.246;2024-03-23T12:31:13;9.60;99.90
82836;DHT22;72587;50.746;8.246;2024-03-23T12:33:39;9.80;99.90
82836;DHT22;72587;50.746;8.246;2024-03-23T12:36:05;10.10;99.90
82836;DHT22;72587;50.746;8.246;2024-03-23T12:38:30;10.30;99.90
82836;DHT22;72587;50.746;8.246;2024-03-23T12:40:55;10.30;99.90
82836;DHT22;72587;50.746;8.246;2024-03-23T12:43:21;10.20;99.90
82836;DHT22;72587;50.746;8.246;2024-03-23T12:45:47;10.20;99.90
82836;DHT22;72587;50.746;8.246;2024-03-23T12:48:12;9.90;99.90
82836;DHT22;72587;50.746;8.246;2024-03-23T12:50:38;9.80;99.90
82836;DHT22;72587;50.746;8.246;2024-03-23T12:53:03;9.60;99.90
82836;DHT22;72587;50.746;8.246;2024-03-23T12:55:29;9.40;99.90
82836;DHT22;72587;50.746;8.246;2024-03-23T12:57:54;9.30;99.90
82836;DHT22;72587;50.746;8.246;2024-03-23T13:00:20;9.60;99.90
82836;DHT22;72587;50.746;8.246;2024-03-23T13:02:45;9.90;99.90
82836;DHT22;72587;50.746;8.246;2024-03-23T13:05:11;10.20;99.90
82836;DHT22;72587;50.746;8.246;2024-03-23T13:07:36;10.40;99.90
82836;DHT22;72587;50.746;8.246;2024-03-23T13:10:04;10.20;99.90
82836;DHT22;72587;50.746;8.246;2024-03-23T13:12:30;9.30;99.90
82836;DHT22;72587;50.746;8.246;2024-03-23T13:14:56;8.40;99.90
82836;DHT22;72587;50.746;8.246;2024-03-23T13:17:21;7.50;99.90
82836;DHT22;72587;50.746;8.246;2024-03-23T13:19:47;6.70;99.90
82836;DHT22;72587;50.746;8.246;2024-03-23T13:22:12;6.10;99.90
82836;DHT22;72587;50.746;8.246;2024-03-23T13:24:38;6.20;99.90
82836;DHT22;72587;50.746;8.246;2024-03-23T13:27:03;6.90;99.90
82836;DHT22;72587;50.746;8.246;2024-03-23T13:29:30;7.40;99.90
82836;DHT22;72587;50.746;8.246;2024-03-23T13:31:56;7.70;99.90
82836;DHT22;72587;50.746;8.246;2024-03-23T13:34:22;7.70;99.90
82836;DHT22;72587;50.746;8.246;2024-03-23T13:36:47;7.60;99.90
82836;DHT22;72587;50.746;8.246;2024-03-23T13:39:13;7.60;99.90
82836;DHT22;72587;50.746;8.246;2024-03-23T13:41:39;7.60;99.90
82836;DHT22;72587;50.746;8.246;2024-03-23T13:44:08;7.30;99.90
82836;DHT22;72587;50.746;8.246;2024-03-23T13:46:35;7.10;99.90
82836;DHT22;72587;50.746;8.246;2024-03-23T13:49:01;6.90;99.90
82836;DHT22;72587;50.746;8.246;2024-03-23T13:51:26;7.00;99.90
82836;DHT22;72587;50.746;8.246;2024-03-23T13:53:55;7.20;99.90
82836;DHT22;72587;50.746;8.246;2024-03-23T13:56:22;7.00;99.90
82836;DHT22;72587;50.746;8.246;2024-03-23T13:58:47;7.00;99.90
82836;DHT22;72587;50.746;8.246;2024-03-23T14:01:13;6.80;99.90
82836;DHT22;72587;50.746;8.246;2024-03-23T14:03:39;6.70;99.90
82836;DHT22;72587;50.746;8.246;2024-03-23T14:06:05;6.50;99.90
82836;DHT22;72587;50.746;8.246;2024-03-23T14:08:33;6.30;99.90
82836;DHT22;72587;50.746;8.246;2024-03-23T14:11:01;6.20;99.90
82836;DHT22;72587;50.746;8.246;2024-03-23T14:13:27;6.10;99.90
82836;DHT22;72587;50.746;8.246;2024-03-23T14:15:55;6.00;99.90
82836;DHT22;72587;50.746;8.246;2024-03-23T14:18:21;5.90;99.90
82836;DHT22;72587;50.746;8.246;2024-03-23T14:20:49;5.80;99.90
82836;DHT22;72587;50.746;8.246;2024-03-23T14:23:15;5.80;99.90
82836;DHT22;72587;50.746;8.246;2024-03-23T14:25:41;5.80;99.90
82836;DHT22;72587;50.746;8.246;2024-03-23T14:28:07;5.80;99.90
82836;DHT22;72587;50.746;8.246;2024-03-23T14:30:39;5.90;99.90
82836;DHT22;72587;50.746;8.246;2024-03-23T14:33:04;6.00;99.90
82836;DHT22;72587;50.746;8.246;2024-03-23T14:35:30;6.30;99.90
82836;DHT22;72587;50.746;8.246;2024-03-23T14:37:56;6.90;99.90
82836;DHT22;72587;50.746;8.246;2024-03-23T14:40:22;7.50;99.90
82836;DHT22;72587;50.746;8.246;2024-03-23T14:42:47;7.90;99.90
82836;DHT22;72587;50.746;8.246;2024-03-23T14:45:12;8.30;99.90
82836;DHT22;72587;50.746;8.246;2024-03-23T14:47:40;8.50;99.90
82836;DHT22;72587;50.746;8.246;2024-03-23T14:50:07;8.80;99.90
82836;DHT22;72587;50.746;8.246;2024-03-23T14:52:33;9.00;99.90
82836;DHT22;72587;50.746;8.246;2024-03-23T14:54:59;9.30;99.90
82836;DHT22;72587;50.746;8.246;2024-03-23T14:57:24;9.40;99.90
82836;DHT22;72587;50.746;8.246;2024-03-23T14:59:50;9.50;99.90
82836;DHT22;72587;50.746;8.246;2024-03-23T15:02:17;9.60;99.90
82836;DHT22;72587;50.746;8.246;2024-03-23T15:04:42;9.80;99.90
82836;DHT22;72587;50.746;8.246;2024-03-23T15:07:08;9.90;99.90
82836;DHT22;72587;50.746;8.246;2024-03-23T15:09:33;9.90;99.90
82836;DHT22;72587;50.746;8.246;2024-03-23T15:11:59;10.10;99.90
82836;DHT22;72587;50.746;8.246;2024-03-23T15:14:24;10.20;99.90
82836;DHT22;72587;50.746;8.246;2024-03-23T15:16:50;9.90;99.90
82836;DHT22;72587;50.746;8.246;2024-03-23T15:19:18;9.50;99.90
82836;DHT22;72587;50.746;8.246;2024-03-23T15:21:43;9.20;99.90
82836;DHT22;72587;50.746;8.246;2024-03-23T15:24:09;9.00;99.90
82836;DHT22;72587;50.746;8.246;2024-03-23T15:26:36;9.00;99.90
82836;DHT22;72587;50.746;8.246;2024-03-23T15:29:02;9.00;99.90
82836;DHT22;72587;50.746;8.246;2024-03-23T15:31:28;9.00;99.90
82836;DHT22;72587;50.746;8.246;2024-03-23T15:33:54;8.90;99.90
82836;DHT22;72587;50.746;8.246;2024-03-23T15:36:20;8.90;99.90
82836;DHT22;72587;50.746;8.246;2024-03-23T15:38:45;8.60;99.90
82836;DHT22;72587;50.746;8.246;2024-03-23T15:41:11;8.50;99.90
82836;DHT22;72587;50.746;8.246;2024-03-23T15:43:36;8.30;99.90
82836;DHT22;72587;50.746;8.246;2024-03-23T15:46:03;8.30;99.90
82836;DHT22;72587;50.746;8.246;2024-03-23T15:48:29;8.10;99.90
82836;DHT22;72587;50.746;8.246;2024-03-23T15:51:01;8.00;99.90
82836;DHT22;72587;50.746;8.246;2024-03-23T15:53:27;7.70;99.90
82836;DHT22;72587;50.746;8.246;2024-03-23T15:56:02;7.10;99.90
82836;DHT22;72587;50.746;8.246;2024-03-23T15:58:29;6.00;99.90
82836;DHT22;72587;50.746;8.246;2024-03-23T16:01:01;5.40;99.90
82836;DHT22;72587;50.746;8.246;2024-03-23T16:03:27;5.00;99.90
82836;DHT22;72587;50.746;8.246;2024-03-23T16:05:53;4.70;99.90
82836;DHT22;72587;50.746;8.246;2024-03-23T16:08:19;4.60;99.90
82836;DHT22;72587;50.746;8.246;2024-03-23T16:10:44;4.50;99.90
82836;DHT22;72587;50.746;8.246;2024-03-23T16:13:10;4.40;99.90
82836;DHT22;72587;50.746;8.246;2024-03-23T16:15:35;4.30;99.90
82836;DHT22;72587;50.746;8.246;2024-03-23T16:18:01;4.10;99.90
82836;DHT22;72587;50.746;8.246;2024-03-23T16:20:26;4.20;99.90
82836;DHT22;72587;50.746;8.246;2024-03-23T16:22:52;4.20;99.90
82836;DHT22;72587;50.746;8.246;2024-03-23T16:25:17;4.20;99.90
82836;DHT22;72587;50.746;8.246;2024-03-23T16:27:43;4.10;99.90
82836;DHT22;72587;50.746;8.246;2024-03-23T16:30:08;4.10;99.90
82836;DHT22;72587;50.746;8.246;2024-03-23T16:32:35;4.00;99.90
82836;DHT22;72587;50.746;8.246;2024-03-23T16:35:03;4.10;99.90
82836;DHT22;72587;50.746;8.246;2024-03-23T16:37:28;4.00;99.90
82836;DHT22;72587;50.746;8.246;2024-03-23T16:39:54;3.90;99.90
82836;DHT22;72587;50.746;8.246;2024-03-23T16:42:19;3.90;99.90
82836;DHT22;72587;50.746;8.246;2024-03-23T16:44:45;4.00;99.90
82836;DHT22;72587;50.746;8.246;2024-03-23T16:47:10;3.90;99.90